53PN weather

S W Jack Heliport
Indiana, Pennsylvania, United States

Public forecast

Using degrees Fahrenheit for public forecast. Weather courtesy of forecast.io.

Closest aviation weather report (METAR) to S W Jack Heliport

Closest report is Indiana County/Jimmy Stewart Fld/ Airport, 0.4 nm (0.7 km) ENE. Retrieved 2020/08/04 05:15 UTC (4 minutes ago):

KIDI 040515Z AUTO 15005KT 10SM FEW037 OVC046 21/20 A3001 RMK A01

Closest aviation forecast (TAF) to S W Jack Heliport

Closest forecast is John Murtha Johnstown Cambria County Airport, 22.8 nm (42.2 km) SE. Retrieved 2020-08-04 00:00 UTC (5 hours ago):

TAF KJST 032358Z 0400/0424 18005KT P6SM VCSH SCT025 BKN070 FM040300 17005KT P6SM OVC015 FM040700 17005KT P6SM OVC009 FM041500 30003KT P6SM -SHRA OVC015 FM041900 29005KT P6SM -SHRA OVC035